sensor_id;sensor_type;location;lat;lon;timestamp;temperature;humidity
51853;DHT22;37894;53.172;6.598;2023-02-15T00:01:18;1.30;99.90
51853;DHT22;37894;53.172;6.598;2023-02-15T00:03:44;1.70;99.90
51853;DHT22;37894;53.172;6.598;2023-02-15T00:06:10;1.30;99.90
51853;DHT22;37894;53.172;6.598;2023-02-15T00:08:35;1.50;99.90
51853;DHT22;37894;53.172;6.598;2023-02-15T00:11:09;2.40;99.90
51853;DHT22;37894;53.172;6.598;2023-02-15T00:13:35;1.10;99.90
51853;DHT22;37894;53.172;6.598;2023-02-15T00:16:12;1.00;99.90
51853;DHT22;37894;53.172;6.598;2023-02-15T00:18:39;1.20;99.90
51853;DHT22;37894;53.172;6.598;2023-02-15T00:21:06;1.20;99.90
51853;DHT22;37894;53.172;6.598;2023-02-15T00:26:09;1.20;99.90
51853;DHT22;37894;53.172;6.598;2023-02-15T00:28:39;3.20;99.90
51853;DHT22;37894;53.172;6.598;2023-02-15T00:31:09;2.00;99.90
51853;DHT22;37894;53.172;6.598;2023-02-15T00:33:36;1.20;99.90
51853;DHT22;37894;53.172;6.598;2023-02-15T00:36:03;1.20;99.90
51853;DHT22;37894;53.172;6.598;2023-02-15T00:40:57;1.00;99.90
51853;DHT22;37894;53.172;6.598;2023-02-15T00:43:24;1.00;99.90
51853;DHT22;37894;53.172;6.598;2023-02-15T00:45:50;1.10;99.90
51853;DHT22;37894;53.172;6.598;2023-02-15T00:48:17;0.80;99.90
51853;DHT22;37894;53.172;6.598;2023-02-15T00:50:46;0.90;99.90
51853;DHT22;37894;53.172;6.598;2023-02-15T00:53:12;0.90;99.90
51853;DHT22;37894;53.172;6.598;2023-02-15T00:55:38;1.10;99.90
51853;DHT22;37894;53.172;6.598;2023-02-15T00:58:06;0.90;99.90
51853;DHT22;37894;53.172;6.598;2023-02-15T01:02:57;0.90;99.90
51853;DHT22;37894;53.172;6.598;2023-02-15T01:05:23;0.80;99.90
51853;DHT22;37894;53.172;6.598;2023-02-15T01:10:15;0.80;99.90
51853;DHT22;37894;53.172;6.598;2023-02-15T01:12:42;0.80;99.90
51853;DHT22;37894;53.172;6.598;2023-02-15T01:17:33;0.70;99.90
51853;DHT22;37894;53.172;6.598;2023-02-15T01:19:59;1.70;99.90
51853;DHT22;37894;53.172;6.598;2023-02-15T01:22:25;0.70;99.90
51853;DHT22;37894;53.172;6.598;2023-02-15T01:24:51;0.90;99.90
51853;DHT22;37894;53.172;6.598;2023-02-15T01:29:43;0.60;99.90
51853;DHT22;37894;53.172;6.598;2023-02-15T01:32:08;1.00;99.90
51853;DHT22;37894;53.172;6.598;2023-02-15T01:34:34;1.00;99.90
51853;DHT22;37894;53.172;6.598;2023-02-15T01:37:00;0.80;99.90
51853;DHT22;37894;53.172;6.598;2023-02-15T01:39:26;1.00;99.90
51853;DHT22;37894;53.172;6.598;2023-02-15T01:41:51;1.00;99.90
51853;DHT22;37894;53.172;6.598;2023-02-15T01:47:10;1.00;99.90
51853;DHT22;37894;53.172;6.598;2023-02-15T01:49:38;0.90;99.90
51853;DHT22;37894;53.172;6.598;2023-02-15T01:52:08;0.70;99.90
51853;DHT22;37894;53.172;6.598;2023-02-15T01:54:36;1.10;99.90
51853;DHT22;37894;53.172;6.598;2023-02-15T01:57:05;0.40;99.90
51853;DHT22;37894;53.172;6.598;2023-02-15T01:59:33;0.90;99.90
51853;DHT22;37894;53.172;6.598;2023-02-15T02:02:02;1.00;99.90
51853;DHT22;37894;53.172;6.598;2023-02-15T02:04:43;0.90;99.90
51853;DHT22;37894;53.172;6.598;2023-02-15T02:07:13;1.30;99.90
51853;DHT22;37894;53.172;6.598;2023-02-15T02:09:39;1.00;99.90
51853;DHT22;37894;53.172;6.598;2023-02-15T02:12:05;0.80;99.90
51853;DHT22;37894;53.172;6.598;2023-02-15T02:14:31;0.90;99.90
51853;DHT22;37894;53.172;6.598;2023-02-15T02:17:07;0.90;99.90
51853;DHT22;37894;53.172;6.598;2023-02-15T02:40:16;0.00;99.90
51853;DHT22;37894;53.172;6.598;2023-02-15T02:42:49;0.50;99.90
51853;DHT22;37894;53.172;6.598;2023-02-15T02:45:25;0.10;99.90
51853;DHT22;37894;53.172;6.598;2023-02-15T02:48:00;0.50;99.90
51853;DHT22;37894;53.172;6.598;2023-02-15T02:50:29;1.10;99.90
51853;DHT22;37894;53.172;6.598;2023-02-15T02:52:57;0.60;99.90
51853;DHT22;37894;53.172;6.598;2023-02-15T02:55:51;0.30;99.90
51853;DHT22;37894;53.172;6.598;2023-02-15T02:58:42;0.40;99.90
51853;DHT22;37894;53.172;6.598;2023-02-15T03:03:48;0.90;99.90
51853;DHT22;37894;53.172;6.598;2023-02-15T03:06:25;0.40;99.90
51853;DHT22;37894;53.172;6.598;2023-02-15T03:09:06;0.50;99.90
51853;DHT22;37894;53.172;6.598;2023-02-15T03:11:43;0.40;99.90
51853;DHT22;37894;53.172;6.598;2023-02-15T03:14:10;0.50;99.90
51853;DHT22;37894;53.172;6.598;2023-02-15T03:16:37;0.90;99.90
51853;DHT22;37894;53.172;6.598;2023-02-15T03:19:14;0.70;99.90
51853;DHT22;37894;53.172;6.598;2023-02-15T03:21:45;0.60;99.90
51853;DHT22;37894;53.172;6.598;2023-02-15T03:24:26;-0.20;99.90
51853;DHT22;37894;53.172;6.598;2023-02-15T03:26:55;0.70;99.90
51853;DHT22;37894;53.172;6.598;2023-02-15T03:29:24;0.60;99.90
51853;DHT22;37894;53.172;6.598;2023-02-15T03:31:58;0.60;99.90
51853;DHT22;37894;53.172;6.598;2023-02-15T03:34:25;0.70;99.90
51853;DHT22;37894;53.172;6.598;2023-02-15T03:37:13;0.70;99.90
51853;DHT22;37894;53.172;6.598;2023-02-15T03:44:56;1.30;99.90
51853;DHT22;37894;53.172;6.598;2023-02-15T03:47:27;1.10;99.90
51853;DHT22;37894;53.172;6.598;2023-02-15T03:53:13;0.10;99.90
51853;DHT22;37894;53.172;6.598;2023-02-15T03:58:05;0.60;99.90
51853;DHT22;37894;53.172;6.598;2023-02-15T04:00:59;0.40;99.90
51853;DHT22;37894;53.172;6.598;2023-02-15T04:03:56;1.70;99.90
51853;DHT22;37894;53.172;6.598;2023-02-15T04:08:49;0.60;99.90
51853;DHT22;37894;53.172;6.598;2023-02-15T04:11:33;1.40;99.90
51853;DHT22;37894;53.172;6.598;2023-02-15T04:13:58;0.40;99.90
51853;DHT22;37894;53.172;6.598;2023-02-15T04:19:10;-0.40;99.90
51853;DHT22;37894;53.172;6.598;2023-02-15T04:21:54;0.20;99.90
51853;DHT22;37894;53.172;6.598;2023-02-15T04:24:38;0.00;99.90
51853;DHT22;37894;53.172;6.598;2023-02-15T04:32:15;0.50;99.90
51853;DHT22;37894;53.172;6.598;2023-02-15T04:34:40;0.40;99.90
51853;DHT22;37894;53.172;6.598;2023-02-15T04:39:32;1.30;99.90
51853;DHT22;37894;53.172;6.598;2023-02-15T04:41:58;-0.20;99.90
51853;DHT22;37894;53.172;6.598;2023-02-15T04:44:24;0.40;99.90
51853;DHT22;37894;53.172;6.598;2023-02-15T04:46:49;0.10;99.90
51853;DHT22;37894;53.172;6.598;2023-02-15T04:49:15;0.50;99.90
51853;DHT22;37894;53.172;6.598;2023-02-15T04:54:07;0.60;99.90
51853;DHT22;37894;53.172;6.598;2023-02-15T04:56:32;0.70;99.90
51853;DHT22;37894;53.172;6.598;2023-02-15T05:01:26;0.60;99.90
51853;DHT22;37894;53.172;6.598;2023-02-15T05:06:18;0.30;99.90
51853;DHT22;37894;53.172;6.598;2023-02-15T05:08:44;1.00;99.90
51853;DHT22;37894;53.172;6.598;2023-02-15T05:11:09;-0.50;99.90
51853;DHT22;37894;53.172;6.598;2023-02-15T05:13:35;0.30;99.90
51853;DHT22;37894;53.172;6.598;2023-02-15T05:16:01;0.10;99.90
51853;DHT22;37894;53.172;6.598;2023-02-15T05:23:19;0.50;99.90
51853;DHT22;37894;53.172;6.598;2023-02-15T05:25:49;0.60;99.90
51853;DHT22;37894;53.172;6.598;2023-02-15T05:28:34;-0.60;99.90
51853;DHT22;37894;53.172;6.598;2023-02-15T05:31:04;0.00;99.90
51853;DHT22;37894;53.172;6.598;2023-02-15T05:33:31;0.50;99.90
51853;DHT22;37894;53.172;6.598;2023-02-15T05:35:57;0.40;99.90
51853;DHT22;37894;53.172;6.598;2023-02-15T05:40:51;0.70;99.90
51853;DHT22;37894;53.172;6.598;2023-02-15T05:43:17;0.40;99.90
51853;DHT22;37894;53.172;6.598;2023-02-15T05:45:47;0.70;99.90
51853;DHT22;37894;53.172;6.598;2023-02-15T05:48:13;0.50;99.90
51853;DHT22;37894;53.172;6.598;2023-02-15T05:53:05;0.70;99.90
51853;DHT22;37894;53.172;6.598;2023-02-15T05:55:31;0.10;99.90
51853;DHT22;37894;53.172;6.598;2023-02-15T05:57:57;0.80;99.90
51853;DHT22;37894;53.172;6.598;2023-02-15T06:00:23;0.70;99.90
51853;DHT22;37894;53.172;6.598;2023-02-15T06:05:15;-0.20;99.90
51853;DHT22;37894;53.172;6.598;2023-02-15T06:07:43;0.70;99.90
51853;DHT22;37894;53.172;6.598;2023-02-15T06:12:36;1.00;99.90
51853;DHT22;37894;53.172;6.598;2023-02-15T06:15:02;1.00;99.90
51853;DHT22;37894;53.172;6.598;2023-02-15T06:17:28;1.20;99.90
51853;DHT22;37894;53.172;6.598;2023-02-15T06:22:20;0.90;99.90
51853;DHT22;37894;53.172;6.598;2023-02-15T06:24:46;1.10;99.90
51853;DHT22;37894;53.172;6.598;2023-02-15T06:27:12;2.60;99.90
51853;DHT22;37894;53.172;6.598;2023-02-15T06:29:38;0.80;99.90
51853;DHT22;37894;53.172;6.598;2023-02-15T06:32:04;1.20;99.90
51853;DHT22;37894;53.172;6.598;2023-02-15T06:34:30;1.20;99.90
51853;DHT22;37894;53.172;6.598;2023-02-15T06:36:55;0.30;99.90
51853;DHT22;37894;53.172;6.598;2023-02-15T06:39:21;0.80;99.90
51853;DHT22;37894;53.172;6.598;2023-02-15T06:41:47;0.90;99.90
51853;DHT22;37894;53.172;6.598;2023-02-15T06:46:39;0.70;99.90
51853;DHT22;37894;53.172;6.598;2023-02-15T06:49:05;1.00;99.90
51853;DHT22;37894;53.172;6.598;2023-02-15T06:51:31;1.90;99.90
51853;DHT22;37894;53.172;6.598;2023-02-15T06:56:23;1.10;99.90
51853;DHT22;37894;53.172;6.598;2023-02-15T06:58:48;1.00;99.90
51853;DHT22;37894;53.172;6.598;2023-02-15T07:03:41;1.20;99.90
51853;DHT22;37894;53.172;6.598;2023-02-15T07:06:07;0.80;99.90
51853;DHT22;37894;53.172;6.598;2023-02-15T07:08:34;0.80;99.90
51853;DHT22;37894;53.172;6.598;2023-02-15T07:11:01;1.10;99.90
51853;DHT22;37894;53.172;6.598;2023-02-15T07:13:46;1.10;99.90
51853;DHT22;37894;53.172;6.598;2023-02-15T07:18:39;2.10;99.90
51853;DHT22;37894;53.172;6.598;2023-02-15T07:21:05;1.20;99.90
51853;DHT22;37894;53.172;6.598;2023-02-15T07:23:35;0.90;99.90
51853;DHT22;37894;53.172;6.598;2023-02-15T07:26:01;1.80;99.90
51853;DHT22;37894;53.172;6.598;2023-02-15T07:28:27;1.30;99.90
51853;DHT22;37894;53.172;6.598;2023-02-15T07:30:53;1.30;99.90
51853;DHT22;37894;53.172;6.598;2023-02-15T07:33:19;1.40;99.90
51853;DHT22;37894;53.172;6.598;2023-02-15T07:35:49;2.10;99.90
51853;DHT22;37894;53.172;6.598;2023-02-15T07:38:15;1.20;99.90
51853;DHT22;37894;53.172;6.598;2023-02-15T07:40:42;1.20;99.90
51853;DHT22;37894;53.172;6.598;2023-02-15T07:43:08;0.50;99.90
51853;DHT22;37894;53.172;6.598;2023-02-15T07:45:33;1.40;99.90
51853;DHT22;37894;53.172;6.598;2023-02-15T07:48:00;1.80;99.90
51853;DHT22;37894;53.172;6.598;2023-02-15T07:50:28;1.60;99.90
51853;DHT22;37894;53.172;6.598;2023-02-15T07:52:53;1.70;99.90
51853;DHT22;37894;53.172;6.598;2023-02-15T07:55:19;1.50;99.90
51853;DHT22;37894;53.172;6.598;2023-02-15T07:57:47;1.90;99.90
51853;DHT22;37894;53.172;6.598;2023-02-15T08:00:15;2.00;99.90
51853;DHT22;37894;53.172;6.598;2023-02-15T08:02:47;1.10;99.90
51853;DHT22;37894;53.172;6.598;2023-02-15T08:05:12;1.90;99.90
51853;DHT22;37894;53.172;6.598;2023-02-15T08:10:05;1.70;99.90
51853;DHT22;37894;53.172;6.598;2023-02-15T08:17:23;2.20;99.90
51853;DHT22;37894;53.172;6.598;2023-02-15T08:19:48;2.10;99.90
51853;DHT22;37894;53.172;6.598;2023-02-15T08:24:40;2.20;99.90
51853;DHT22;37894;53.172;6.598;2023-02-15T08:27:08;2.00;99.90
51853;DHT22;37894;53.172;6.598;2023-02-15T08:29:36;2.20;99.90
51853;DHT22;37894;53.172;6.598;2023-02-15T08:32:05;2.50;99.90
51853;DHT22;37894;53.172;6.598;2023-02-15T08:34:32;2.60;99.90
51853;DHT22;37894;53.172;6.598;2023-02-15T08:39:24;2.70;99.90
51853;DHT22;37894;53.172;6.598;2023-02-15T08:44:18;2.90;99.90
51853;DHT22;37894;53.172;6.598;2023-02-15T08:46:46;2.60;99.90
51853;DHT22;37894;53.172;6.598;2023-02-15T08:49:15;2.20;99.90
51853;DHT22;37894;53.172;6.598;2023-02-15T08:51:41;3.00;99.90
51853;DHT22;37894;53.172;6.598;2023-02-15T08:54:09;3.30;99.90
51853;DHT22;37894;53.172;6.598;2023-02-15T08:56:38;2.80;99.90
51853;DHT22;37894;53.172;6.598;2023-02-15T08:59:05;3.20;99.90
51853;DHT22;37894;53.172;6.598;2023-02-15T09:01:33;3.40;99.90
51853;DHT22;37894;53.172;6.598;2023-02-15T09:04:04;3.30;99.90
51853;DHT22;37894;53.172;6.598;2023-02-15T09:06:31;3.80;99.90
51853;DHT22;37894;53.172;6.598;2023-02-15T09:08:57;3.60;99.90
51853;DHT22;37894;53.172;6.598;2023-02-15T09:11:28;3.30;99.90
51853;DHT22;37894;53.172;6.598;2023-02-15T09:13:57;3.80;99.90
51853;DHT22;37894;53.172;6.598;2023-02-15T09:16:26;3.40;99.90
51853;DHT22;37894;53.172;6.598;2023-02-15T09:18:52;2.90;99.90
51853;DHT22;37894;53.172;6.598;2023-02-15T09:21:20;3.50;99.90
51853;DHT22;37894;53.172;6.598;2023-02-15T09:23:48;3.30;99.90
51853;DHT22;37894;53.172;6.598;2023-02-15T09:26:19;3.70;99.90
51853;DHT22;37894;53.172;6.598;2023-02-15T09:28:46;3.60;99.90
51853;DHT22;37894;53.172;6.598;2023-02-15T09:31:17;3.60;99.90
51853;DHT22;37894;53.172;6.598;2023-02-15T09:33:45;4.00;99.90
51853;DHT22;37894;53.172;6.598;2023-02-15T09:36:23;5.00;99.90
51853;DHT22;37894;53.172;6.598;2023-02-15T09:38:58;4.10;99.90
51853;DHT22;37894;53.172;6.598;2023-02-15T09:55:48;4.80;99.90
51853;DHT22;37894;53.172;6.598;2023-02-15T10:01:29;6.00;99.90
51853;DHT22;37894;53.172;6.598;2023-02-15T10:06:46;5.40;99.90
51853;DHT22;37894;53.172;6.598;2023-02-15T10:09:32;5.40;99.90
51853;DHT22;37894;53.172;6.598;2023-02-15T10:12:09;5.30;99.90
51853;DHT22;37894;53.172;6.598;2023-02-15T10:14:56;5.30;99.90
51853;DHT22;37894;53.172;6.598;2023-02-15T10:17:38;6.20;99.90
51853;DHT22;37894;53.172;6.598;2023-02-15T10:20:25;5.60;99.90
51853;DHT22;37894;53.172;6.598;2023-02-15T10:26:42;5.30;99.90
51853;DHT22;37894;53.172;6.598;2023-02-15T10:29:12;6.30;99.90
51853;DHT22;37894;53.172;6.598;2023-02-15T10:31:49;5.60;99.90
51853;DHT22;37894;53.172;6.598;2023-02-15T10:34:39;5.80;99.90
51853;DHT22;37894;53.172;6.598;2023-02-15T10:37:27;6.00;99.90
51853;DHT22;37894;53.172;6.598;2023-02-15T10:42:45;7.20;99.90
51853;DHT22;37894;53.172;6.598;2023-02-15T10:45:25;6.60;99.90
51853;DHT22;37894;53.172;6.598;2023-02-15T10:48:00;6.50;99.90
51853;DHT22;37894;53.172;6.598;2023-02-15T10:50:49;7.10;99.90
51853;DHT22;37894;53.172;6.598;2023-02-15T10:59:29;7.00;99.90
51853;DHT22;37894;53.172;6.598;2023-02-15T11:02:03;7.60;99.90
51853;DHT22;37894;53.172;6.598;2023-02-15T11:04:41;7.30;99.90
51853;DHT22;37894;53.172;6.598;2023-02-15T11:07:27;7.30;99.90
51853;DHT22;37894;53.172;6.598;2023-02-15T11:10:30;7.60;99.90
51853;DHT22;37894;53.172;6.598;2023-02-15T11:13:07;7.40;99.90
51853;DHT22;37894;53.172;6.598;2023-02-15T11:15:38;7.10;99.90
51853;DHT22;37894;53.172;6.598;2023-02-15T11:20:42;7.80;99.90
51853;DHT22;37894;53.172;6.598;2023-02-15T11:23:15;8.20;99.90
51853;DHT22;37894;53.172;6.598;2023-02-15T11:25:52;8.10;99.90
51853;DHT22;37894;53.172;6.598;2023-02-15T11:28:24;8.20;99.90
51853;DHT22;37894;53.172;6.598;2023-02-15T11:30:54;8.50;99.90
51853;DHT22;37894;53.172;6.598;2023-02-15T11:33:31;8.70;99.90
51853;DHT22;37894;53.172;6.598;2023-02-15T11:36:07;8.60;99.90
51853;DHT22;37894;53.172;6.598;2023-02-15T11:38:35;8.60;99.90
51853;DHT22;37894;53.172;6.598;2023-02-15T11:41:05;8.80;99.90
51853;DHT22;37894;53.172;6.598;2023-02-15T11:43:39;9.40;99.90
51853;DHT22;37894;53.172;6.598;2023-02-15T11:46:08;9.60;99.90
51853;DHT22;37894;53.172;6.598;2023-02-15T11:48:36;10.00;99.90
51853;DHT22;37894;53.172;6.598;2023-02-15T11:51:02;9.80;99.90
51853;DHT22;37894;53.172;6.598;2023-02-15T11:53:32;9.90;99.90
51853;DHT22;37894;53.172;6.598;2023-02-15T11:55:59;10.10;99.90
51853;DHT22;37894;53.172;6.598;2023-02-15T12:06:53;10.40;99.90
51853;DHT22;37894;53.172;6.598;2023-02-15T12:09:46;10.50;99.90
51853;DHT22;37894;53.172;6.598;2023-02-15T12:12:31;10.40;99.90
51853;DHT22;37894;53.172;6.598;2023-02-15T12:15:09;10.40;99.90
51853;DHT22;37894;53.172;6.598;2023-02-15T12:17:52;10.40;99.90
51853;DHT22;37894;53.172;6.598;2023-02-15T12:22:58;10.20;99.90
51853;DHT22;37894;53.172;6.598;2023-02-15T12:25:36;10.40;99.90
51853;DHT22;37894;53.172;6.598;2023-02-15T12:28:03;10.40;99.90
51853;DHT22;37894;53.172;6.598;2023-02-15T12:30:35;10.30;99.90
51853;DHT22;37894;53.172;6.598;2023-02-15T12:33:17;10.40;99.90
51853;DHT22;37894;53.172;6.598;2023-02-15T12:35:46;9.50;99.90
51853;DHT22;37894;53.172;6.598;2023-02-15T12:40:40;10.20;99.90
51853;DHT22;37894;53.172;6.598;2023-02-15T12:43:26;10.40;99.90
51853;DHT22;37894;53.172;6.598;2023-02-15T12:45:52;10.50;99.90
51853;DHT22;37894;53.172;6.598;2023-02-15T12:48:19;10.50;99.90
51853;DHT22;37894;53.172;6.598;2023-02-15T12:50:50;12.20;99.90
51853;DHT22;37894;53.172;6.598;2023-02-15T12:53:23;10.70;99.90
51853;DHT22;37894;53.172;6.598;2023-02-15T12:55:57;10.70;99.90
51853;DHT22;37894;53.172;6.598;2023-02-15T12:58:27;10.80;99.90
51853;DHT22;37894;53.172;6.598;2023-02-15T13:03:30;10.90;99.90
51853;DHT22;37894;53.172;6.598;2023-02-15T13:05:57;10.90;99.90
51853;DHT22;37894;53.172;6.598;2023-02-15T13:08:50;10.90;99.90
51853;DHT22;37894;53.172;6.598;2023-02-15T13:11:26;10.90;99.90
51853;DHT22;37894;53.172;6.598;2023-02-15T13:13:59;10.50;99.90
51853;DHT22;37894;53.172;6.598;2023-02-15T13:16:46;10.90;99.90
51853;DHT22;37894;53.172;6.598;2023-02-15T13:19:16;10.90;99.90
51853;DHT22;37894;53.172;6.598;2023-02-15T13:21:48;12.40;99.90
51853;DHT22;37894;53.172;6.598;2023-02-15T13:24:20;10.90;99.90
51853;DHT22;37894;53.172;6.598;2023-02-15T13:26:47;10.40;99.90
51853;DHT22;37894;53.172;6.598;2023-02-15T13:29:50;10.90;99.90
51853;DHT22;37894;53.172;6.598;2023-02-15T13:34:56;11.00;99.90
51853;DHT22;37894;53.172;6.598;2023-02-15T13:40:22;10.90;99.90
51853;DHT22;37894;53.172;6.598;2023-02-15T13:43:17;10.90;99.90
51853;DHT22;37894;53.172;6.598;2023-02-15T13:46:02;11.00;99.90
51853;DHT22;37894;53.172;6.598;2023-02-15T13:48:55;11.00;99.90
51853;DHT22;37894;53.172;6.598;2023-02-15T13:51:27;11.00;99.90
51853;DHT22;37894;53.172;6.598;2023-02-15T14:13:04;10.90;99.90
51853;DHT22;37894;53.172;6.598;2023-02-15T14:15:56;11.00;99.90
51853;DHT22;37894;53.172;6.598;2023-02-15T14:18:45;11.10;99.90
51853;DHT22;37894;53.172;6.598;2023-02-15T14:23:58;11.00;99.90
51853;DHT22;37894;53.172;6.598;2023-02-15T14:31:56;10.90;99.90
51853;DHT22;37894;53.172;6.598;2023-02-15T14:34:57;10.90;99.90
51853;DHT22;37894;53.172;6.598;2023-02-15T14:37:49;10.90;99.90
51853;DHT22;37894;53.172;6.598;2023-02-15T14:40:30;9.90;99.90
51853;DHT22;37894;53.172;6.598;2023-02-15T14:46:28;10.70;99.90
51853;DHT22;37894;53.172;6.598;2023-02-15T14:49:09;10.80;99.90
51853;DHT22;37894;53.172;6.598;2023-02-15T14:59:43;10.80;99.90
51853;DHT22;37894;53.172;6.598;2023-02-15T15:02:11;10.70;99.90
51853;DHT22;37894;53.172;6.598;2023-02-15T15:04:41;10.40;99.90
51853;DHT22;37894;53.172;6.598;2023-02-15T15:09:39;10.40;99.90
51853;DHT22;37894;53.172;6.598;2023-02-15T15:14:53;10.70;99.90
51853;DHT22;37894;53.172;6.598;2023-02-15T15:20:12;10.40;99.90
51853;DHT22;37894;53.172;6.598;2023-02-15T15:22:41;10.00;99.90
51853;DHT22;37894;53.172;6.598;2023-02-15T15:27:56;10.30;99.90
51853;DHT22;37894;53.172;6.598;2023-02-15T15:32:59;9.90;99.90
51853;DHT22;37894;53.172;6.598;2023-02-15T15:41:41;9.90;99.90
51853;DHT22;37894;53.172;6.598;2023-02-15T15:49:46;10.10;99.90
51853;DHT22;37894;53.172;6.598;2023-02-15T15:52:17;9.50;99.90
51853;DHT22;37894;53.172;6.598;2023-02-15T15:54:45;9.60;99.90
51853;DHT22;37894;53.172;6.598;2023-02-15T15:57:35;8.70;99.90
51853;DHT22;37894;53.172;6.598;2023-02-15T16:00:05;9.30;99.90
51853;DHT22;37894;53.172;6.598;2023-02-15T16:02:53;8.30;99.90
51853;DHT22;37894;53.172;6.598;2023-02-15T16:05:19;9.40;99.90
51853;DHT22;37894;53.172;6.598;2023-02-15T16:07:45;9.40;99.90
51853;DHT22;37894;53.172;6.598;2023-02-15T16:10:23;9.40;99.90
51853;DHT22;37894;53.172;6.598;2023-02-15T16:12:50;9.30;99.90
51853;DHT22;37894;53.172;6.598;2023-02-15T16:15:23;9.30;99.90
51853;DHT22;37894;53.172;6.598;2023-02-15T16:17:53;8.60;99.90
51853;DHT22;37894;53.172;6.598;2023-02-15T16:20:29;9.00;99.90
51853;DHT22;37894;53.172;6.598;2023-02-15T16:28:26;9.00;99.90
51853;DHT22;37894;53.172;6.598;2023-02-15T16:31:22;9.10;99.90
51853;DHT22;37894;53.172;6.598;2023-02-15T16:33:51;8.80;99.90
51853;DHT22;37894;53.172;6.598;2023-02-15T16:36:27;8.60;99.90
51853;DHT22;37894;53.172;6.598;2023-02-15T16:41:28;8.90;99.90
51853;DHT22;37894;53.172;6.598;2023-02-15T16:43:57;8.60;99.90
51853;DHT22;37894;53.172;6.598;2023-02-15T16:48:57;8.50;99.90
51853;DHT22;37894;53.172;6.598;2023-02-15T16:51:27;8.40;99.90
51853;DHT22;37894;53.172;6.598;2023-02-15T16:53:54;8.40;99.90
51853;DHT22;37894;53.172;6.598;2023-02-15T16:56:26;8.20;99.90
51853;DHT22;37894;53.172;6.598;2023-02-15T16:58:54;8.20;99.90
51853;DHT22;37894;53.172;6.598;2023-02-15T17:01:22;8.20;99.90
51853;DHT22;37894;53.172;6.598;2023-02-15T17:03:51;8.20;99.90
51853;DHT22;37894;53.172;6.598;2023-02-15T17:06:35;8.10;99.90
51853;DHT22;37894;53.172;6.598;2023-02-15T17:09:06;8.00;99.90
51853;DHT22;37894;53.172;6.598;2023-02-15T17:11:43;7.90;99.90
51853;DHT22;37894;53.172;6.598;2023-02-15T17:16:49;8.10;99.90
51853;DHT22;37894;53.172;6.598;2023-02-15T17:19:22;6.90;99.90
51853;DHT22;37894;53.172;6.598;2023-02-15T17:21:55;7.70;99.90
51853;DHT22;37894;53.172;6.598;2023-02-15T17:26:59;7.50;99.90
51853;DHT22;37894;53.172;6.598;2023-02-15T17:29:44;7.30;99.90
51853;DHT22;37894;53.172;6.598;2023-02-15T17:32:26;7.40;99.90
51853;DHT22;37894;53.172;6.598;2023-02-15T17:35:21;7.30;99.90
51853;DHT22;37894;53.172;6.598;2023-02-15T17:37:48;7.20;99.90
51853;DHT22;37894;53.172;6.598;2023-02-15T17:40:26;7.40;99.90
51853;DHT22;37894;53.172;6.598;2023-02-15T17:42:52;7.90;99.90
51853;DHT22;37894;53.172;6.598;2023-02-15T17:45:19;7.00;99.90
51853;DHT22;37894;53.172;6.598;2023-02-15T17:47:46;7.20;99.90
51853;DHT22;37894;53.172;6.598;2023-02-15T17:50:21;7.20;99.90
51853;DHT22;37894;53.172;6.598;2023-02-15T17:52:47;8.20;99.90
51853;DHT22;37894;53.172;6.598;2023-02-15T17:55:15;7.20;99.90
51853;DHT22;37894;53.172;6.598;2023-02-15T17:58:02;7.10;99.90
51853;DHT22;37894;53.172;6.598;2023-02-15T18:00:30;7.20;99.90
51853;DHT22;37894;53.172;6.598;2023-02-15T18:03:14;7.40;99.90
51853;DHT22;37894;53.172;6.598;2023-02-15T18:05:59;7.00;99.90
51853;DHT22;37894;53.172;6.598;2023-02-15T18:08:43;7.90;99.90
51853;DHT22;37894;53.172;6.598;2023-02-15T18:11:28;7.30;99.90
51853;DHT22;37894;53.172;6.598;2023-02-15T18:14:07;7.70;99.90
51853;DHT22;37894;53.172;6.598;2023-02-15T18:16:39;7.40;99.90
51853;DHT22;37894;53.172;6.598;2023-02-15T18:19:19;7.00;99.90
51853;DHT22;37894;53.172;6.598;2023-02-15T18:21:47;7.50;99.90
51853;DHT22;37894;53.172;6.598;2023-02-15T18:24:16;7.20;99.90
51853;DHT22;37894;53.172;6.598;2023-02-15T18:26:41;7.40;99.90
51853;DHT22;37894;53.172;6.598;2023-02-15T18:29:08;8.30;99.90
51853;DHT22;37894;53.172;6.598;2023-02-15T18:31:33;7.30;99.90
51853;DHT22;37894;53.172;6.598;2023-02-15T18:34:00;7.10;99.90
51853;DHT22;37894;53.172;6.598;2023-02-15T18:36:41;7.30;99.90
51853;DHT22;37894;53.172;6.598;2023-02-15T18:42:05;7.20;99.90
51853;DHT22;37894;53.172;6.598;2023-02-15T18:44:31;7.10;99.90
51853;DHT22;37894;53.172;6.598;2023-02-15T18:46:57;7.00;99.90
51853;DHT22;37894;53.172;6.598;2023-02-15T18:49:23;7.10;99.90
51853;DHT22;37894;53.172;6.598;2023-02-15T18:51:48;7.20;99.90
51853;DHT22;37894;53.172;6.598;2023-02-15T18:54:23;7.80;99.90
51853;DHT22;37894;53.172;6.598;2023-02-15T18:56:57;6.90;99.90
51853;DHT22;37894;53.172;6.598;2023-02-15T18:59:25;6.90;99.90
51853;DHT22;37894;53.172;6.598;2023-02-15T19:01:51;8.00;99.90
51853;DHT22;37894;53.172;6.598;2023-02-15T19:04:17;6.70;99.90
51853;DHT22;37894;53.172;6.598;2023-02-15T19:06:45;6.80;99.90
51853;DHT22;37894;53.172;6.598;2023-02-15T19:09:21;7.00;99.90
51853;DHT22;37894;53.172;6.598;2023-02-15T19:11:49;6.80;99.90
51853;DHT22;37894;53.172;6.598;2023-02-15T19:14:24;6.70;99.90
51853;DHT22;37894;53.172;6.598;2023-02-15T19:16:50;6.60;99.90
51853;DHT22;37894;53.172;6.598;2023-02-15T19:19:16;6.60;99.90
51853;DHT22;37894;53.172;6.598;2023-02-15T19:21:42;6.60;99.90
51853;DHT22;37894;53.172;6.598;2023-02-15T19:24:15;6.40;99.90
51853;DHT22;37894;53.172;6.598;2023-02-15T19:26:42;7.20;99.90
51853;DHT22;37894;53.172;6.598;2023-02-15T19:29:10;6.10;99.90
51853;DHT22;37894;53.172;6.598;2023-02-15T19:31:36;6.80;99.90
51853;DHT22;37894;53.172;6.598;2023-02-15T19:34:13;7.00;99.90
51853;DHT22;37894;53.172;6.598;2023-02-15T19:36:41;6.70;99.90
51853;DHT22;37894;53.172;6.598;2023-02-15T19:39:27;7.30;99.90
51853;DHT22;37894;53.172;6.598;2023-02-15T19:41:53;5.90;99.90
51853;DHT22;37894;53.172;6.598;2023-02-15T19:44:19;6.80;99.90
51853;DHT22;37894;53.172;6.598;2023-02-15T19:46:45;6.60;99.90
51853;DHT22;37894;53.172;6.598;2023-02-15T19:51:38;7.00;99.90
51853;DHT22;37894;53.172;6.598;2023-02-15T19:56:41;6.70;99.90
51853;DHT22;37894;53.172;6.598;2023-02-15T19:59:25;7.10;99.90
51853;DHT22;37894;53.172;6.598;2023-02-15T20:01:51;6.40;99.90
51853;DHT22;37894;53.172;6.598;2023-02-15T20:04:17;6.90;99.90
51853;DHT22;37894;53.172;6.598;2023-02-15T20:09:22;6.80;99.90
51853;DHT22;37894;53.172;6.598;2023-02-15T20:11:49;6.80;99.90
51853;DHT22;37894;53.172;6.598;2023-02-15T20:14:16;6.70;99.90
51853;DHT22;37894;53.172;6.598;2023-02-15T20:16:41;6.20;99.90
51853;DHT22;37894;53.172;6.598;2023-02-15T20:21:33;6.30;99.90
51853;DHT22;37894;53.172;6.598;2023-02-15T20:24:01;6.40;99.90
51853;DHT22;37894;53.172;6.598;2023-02-15T20:26:27;6.20;99.90
51853;DHT22;37894;53.172;6.598;2023-02-15T20:29:00;6.80;99.90
51853;DHT22;37894;53.172;6.598;2023-02-15T20:31:26;6.40;99.90